Breckenridge, CO (80424)

7:37 AM MDT on May 06, 2015 (GMT -0600)
The Highlands | | Change Station
CLOSE
Current Station
Personal Weather Station
Location: Breckenridge, CO
Elevation: 9734 ft
Nearby Weather Stations

Elev 9734 ft 39.50 °N, 106.04 °W | Updated 2 minutes ago

Overcast
Overcast
34.6 °F
Feels Like 35 °F
N
0.0
Wind Variable Wind from WSW
Gusts 2.0 mph

Today
High -- | Low -- °F
--% Chance of Precip.
Yesterday
High -- | Low -- °F
Precip. -- in
5:59 AM 8:02 PM
Waning Gibbous, 94% visible
Pressure 29.89 in
Visibility 10.0 miles
Clouds Mostly Cloudy 3100 ft
Mostly Cloudy 4300 ft
Overcast 5000 ft
Windchill 35 °F
Dew Point 31 °F
Humidity 87%
Rainfall 0.01 in
Snow Depth Not available.
UV 0 out of 12
Pollen 4.50 out of 12
Air Quality Not available.
Flu Activity Sporadic
SPECI KLXV 061329Z AUTO 34006KT 10SM -RA BKN031 BKN043 OVC050 02/01 A2989 RMK AO2 UPE00RAB21SNB00E21 P0000 T00170006

More Conditions Fewer Conditions

Pressure 29.89 in
Visibility 10.0 miles
Clouds Mostly Cloudy 3100 ft
Mostly Cloudy 4300 ft
Overcast 5000 ft
Windchill 35 °F
Dew Point 31 °F
Humidity 87%
Rainfall 0.01 in
Snow Depth Not available.
UV 0 out of 12
Pollen 4.50 out of 12
Air Quality Not available.
Flu Activity Sporadic
SPECI KLXV 061329Z AUTO 34006KT 10SM -RA BKN031 BKN043 OVC050 02/01 A2989 RMK AO2 UPE00RAB21SNB00E21 P0000 T00170006

More Conditions Fewer Conditions

10-Day Weather Forecast

Almanac

Astronomy

May. 06, 2015 Rise Set
Actual Time
Civil Twilight
Nautical Twilight
Astronomical Twilight
Moon
Length of Visible Light
Length of Day
Tomorrow will be .
, % of the Moon is Illuminated

Today's Extremes

State Highs State Lows

Community

WunderPhotos

Upload Photos

1,818,897 photos uploaded!

WunderBlogs® & News

Nearby

Air Quality

  Air Quality AQ Index Pollutant
Not available.

Snow Depth

Station Depth Elevation

Earthquake Activity

City Distance Mag. Time & Date
Minimum magnitude displayed is 2.5.

Coastal Water Temperatures

Place Temperature

Stations

Nearby Weather Stations

Station Location Temp. Windchill Dew Point Humidity Wind Precip. Elev Updated Type